EHRD/RTM METAR and TAF weather

Enter ICAO airport designator
Station Type Date Time Source
EHRD METAR 2020/03/28 20:55 UTC NOAA

EHRD 282055Z AUTO 02014KT 340V050 9999 SCT026 06/01 Q1028 NOSIG


Station Type Date Time Source
EHRD Decoded METAR 2020/03/28 20:55 UTC NOAA

Rotterdam Airport Zestienhoven, Netherlands (EHRD) 51-57N 004-27E -4M
Mar 28, 2020 - 04:55 PM EDT / 2020.03.28 2055 UTC
Wind: from the NNE (020 degrees) at 16 MPH (14 KT) (direction variable):0
Visibility: greater than 7 mile(s):0
Sky conditions: partly cloudy
Temperature: 42 F (6 C)
Dew Point: 33 F (1 C)
Relative Humidity: 70%
Pressure (altimeter): 30.36 in. Hg (1028 hPa)
ob: EHRD 282055Z AUTO 02014KT 340V050 9999 SCT026 06/01 Q1028 NOSIG
cycle: 21

Station Type Date Time Source
EHRD TAF 2020/03/28 18:28 UTC NOAA

TAF COR EHRD 281722Z 2818/2924 02016G26KT 9999 SCT025
BECMG 2818/2821 35012KT PROB30
TEMPO 2900/2912 7000 -SHRAGS FEW025CB BKN030
BECMG 2906/2909 02022G37KT
BECMG 2916/2918 03015G28KT CAVOK
BECMG 2918/2921 02010KT

Example: see airport list